createdAt,value
2017-08-05T00:00:51.962Z,16.60
2017-08-05T00:03:18.436Z,16.60
2017-08-05T00:05:44.863Z,16.50
2017-08-05T00:08:16.085Z,16.60
2017-08-05T00:10:42.587Z,16.50
2017-08-05T00:13:09.029Z,16.50
2017-08-05T00:15:35.464Z,16.50
2017-08-05T00:18:02.627Z,16.40
2017-08-05T00:20:29.131Z,16.40
2017-08-05T00:22:55.640Z,16.40
2017-08-05T00:25:22.855Z,16.30
2017-08-05T00:27:49.277Z,16.30
2017-08-05T00:30:15.744Z,16.30
2017-08-05T00:32:42.195Z,16.30
2017-08-05T00:35:09.394Z,16.20
2017-08-05T00:37:35.812Z,16.20
2017-08-05T00:40:04.339Z,16.20
2017-08-05T00:42:30.816Z,16.20
2017-08-05T00:44:58.053Z,16.10
2017-08-05T00:47:24.464Z,16.10
2017-08-05T00:49:50.888Z,16.10
2017-08-05T00:52:18.109Z,16.10
2017-08-05T00:54:44.543Z,16.10
2017-08-05T00:57:10.968Z,16.10
2017-08-05T00:59:37.436Z,16.10
2017-08-05T01:02:03.867Z,16.10
2017-08-05T01:04:30.256Z,16.10
2017-08-05T01:06:56.675Z,16.10
2017-08-05T01:09:24.915Z,16.10
2017-08-05T01:11:52.064Z,16.00
2017-08-05T01:14:18.476Z,16.00
2017-08-05T01:16:45.600Z,16.10
2017-08-05T01:19:12.766Z,16.20
2017-08-05T01:21:39.223Z,16.10
2017-08-05T01:24:05.606Z,16.20
2017-08-05T01:26:32.028Z,16.30
2017-08-05T01:28:59.440Z,16.40
2017-08-05T01:31:25.840Z,16.40
2017-08-05T01:33:53.211Z,16.50
2017-08-05T01:36:19.651Z,16.50
2017-08-05T01:38:46.084Z,16.50
2017-08-05T01:41:12.520Z,16.50
2017-08-05T01:43:38.994Z,16.60
2017-08-05T01:46:05.416Z,16.60
2017-08-05T01:48:31.852Z,16.60
2017-08-05T01:50:58.311Z,16.60
2017-08-05T01:53:24.807Z,16.70
2017-08-05T01:55:51.253Z,16.70
2017-08-05T01:58:17.663Z,16.80
2017-08-05T02:00:44.833Z,16.80
2017-08-05T02:03:11.293Z,16.80
2017-08-05T02:05:37.756Z,16.80
2017-08-05T02:08:04.215Z,16.80
2017-08-05T02:10:30.636Z,16.80
2017-08-05T02:12:57.069Z,16.80
2017-08-05T02:15:23.468Z,16.90
2017-08-05T02:17:49.910Z,16.90
2017-08-05T02:20:16.343Z,17.00
2017-08-05T02:22:42.791Z,17.00
2017-08-05T02:25:09.297Z,17.10
2017-08-05T02:27:35.672Z,17.10
2017-08-05T02:30:02.899Z,17.20
2017-08-05T02:32:30.067Z,17.30
2017-08-05T02:34:56.504Z,17.20
2017-08-05T02:37:24.029Z,17.30
2017-08-05T02:39:50.473Z,17.30
2017-08-05T02:42:16.923Z,17.40
2017-08-05T02:44:43.369Z,17.30
2017-08-05T02:47:10.579Z,17.40
2017-08-05T02:49:38.020Z,17.40
2017-08-05T02:52:04.424Z,17.40
2017-08-05T02:54:30.887Z,17.50
2017-08-05T02:56:57.334Z,17.50
2017-08-05T02:59:23.736Z,17.60
2017-08-05T03:01:50.156Z,17.60
2017-08-05T03:04:16.589Z,17.60
2017-08-05T03:06:43.019Z,17.60
2017-08-05T03:09:09.467Z,17.50
2017-08-05T03:11:36.628Z,17.50
2017-08-05T03:14:03.007Z,17.50
2017-08-05T03:16:29.381Z,17.50
2017-08-05T03:18:55.771Z,17.50
2017-08-05T03:21:22.175Z,17.50
2017-08-05T03:23:49.362Z,17.50
2017-08-05T03:26:15.757Z,17.40
2017-08-05T03:28:42.154Z,17.50
2017-08-05T03:31:09.325Z,17.50
2017-08-05T03:33:35.727Z,17.40
2017-08-05T03:36:02.126Z,17.40
2017-08-05T03:38:29.251Z,17.40
2017-08-05T03:40:55.660Z,17.30
2017-08-05T03:43:22.772Z,17.40
2017-08-05T03:45:49.171Z,17.40
2017-08-05T03:48:16.631Z,17.40
2017-08-05T03:50:43.090Z,17.40
2017-08-05T03:53:10.215Z,17.50
2017-08-05T03:55:36.643Z,17.50
2017-08-05T03:58:03.035Z,17.50
2017-08-05T04:00:29.424Z,17.60
2017-08-05T04:02:55.871Z,17.60
2017-08-05T04:05:22.248Z,17.70
2017-08-05T04:07:48.676Z,17.60
2017-08-05T04:10:15.079Z,17.60
2017-08-05T04:12:41.519Z,17.60
2017-08-05T04:15:08.712Z,17.60
2017-08-05T04:17:35.192Z,17.60
2017-08-05T04:20:11.699Z,17.60
2017-08-05T04:22:38.119Z,17.60
2017-08-05T04:25:04.548Z,17.70
2017-08-05T04:27:30.963Z,17.70
2017-08-05T04:29:57.398Z,17.70
2017-08-05T04:32:23.772Z,17.70
2017-08-05T04:34:50.220Z,17.80
2017-08-05T04:37:17.695Z,17.80
2017-08-05T04:39:44.834Z,17.90
2017-08-05T04:42:11.988Z,17.90
2017-08-05T04:44:38.401Z,17.90
2017-08-05T04:47:04.778Z,18.00
2017-08-05T04:49:31.165Z,18.00
2017-08-05T04:51:58.381Z,18.00
2017-08-05T04:54:24.751Z,18.00
2017-08-05T04:56:52.245Z,18.10
2017-08-05T04:59:18.631Z,18.00
2017-08-05T05:01:46.144Z,18.10
2017-08-05T05:04:12.614Z,18.10
2017-08-05T05:06:38.999Z,18.10
2017-08-05T05:09:06.100Z,18.20
2017-08-05T05:11:32.533Z,18.20
2017-08-05T05:13:58.944Z,18.30
2017-08-05T05:16:25.344Z,18.30
2017-08-05T05:18:51.782Z,18.40
2017-08-05T05:21:18.264Z,18.40
2017-08-05T05:23:44.646Z,18.60
2017-08-05T05:26:11.080Z,18.70
2017-08-05T05:28:37.498Z,18.80
2017-08-05T05:31:03.842Z,18.80
2017-08-05T05:33:30.235Z,18.90
2017-08-05T05:35:56.652Z,19.00
2017-08-05T05:38:23.470Z,19.10
2017-08-05T05:40:49.872Z,19.20
2017-08-05T05:43:16.244Z,19.30
2017-08-05T05:45:42.667Z,19.40
2017-08-05T05:48:09.059Z,19.50
2017-08-05T05:50:35.431Z,19.60
2017-08-05T05:53:02.659Z,19.80
2017-08-05T05:55:29.084Z,19.70
2017-08-05T05:57:55.495Z,19.80
2017-08-05T06:00:21.861Z,19.90
2017-08-05T06:02:48.307Z,19.90
2017-08-05T06:05:15.459Z,19.90
2017-08-05T06:07:41.856Z,19.90
2017-08-05T06:10:08.288Z,19.90
2017-08-05T06:12:34.698Z,19.90
2017-08-05T06:15:01.827Z,19.90
2017-08-05T06:17:28.379Z,19.90
2017-08-05T06:19:54.871Z,19.90
2017-08-05T06:22:22.000Z,20.10
2017-08-05T06:24:48.399Z,20.00
2017-08-05T06:27:14.789Z,20.10
2017-08-05T06:29:41.238Z,20.30
2017-08-05T06:32:07.644Z,20.40
2017-08-05T06:34:34.037Z,20.50
2017-08-05T06:37:00.555Z,20.60
2017-08-05T06:39:26.973Z,20.70
2017-08-05T06:41:53.427Z,20.80
2017-08-05T06:44:19.846Z,20.80
2017-08-05T06:46:46.196Z,20.80
2017-08-05T06:49:12.623Z,20.90
2017-08-05T06:51:39.003Z,20.90
2017-08-05T06:54:07.267Z,21.00
2017-08-05T06:56:33.679Z,20.90
2017-08-05T06:59:00.060Z,21.00
2017-08-05T07:01:26.470Z,21.10
2017-08-05T07:03:52.883Z,21.20
2017-08-05T07:06:19.340Z,21.20
2017-08-05T07:08:45.741Z,21.30
2017-08-05T07:11:12.168Z,21.40
2017-08-05T07:13:38.592Z,21.50
2017-08-05T07:16:04.979Z,21.70
2017-08-05T07:18:31.407Z,21.90
2017-08-05T07:20:57.851Z,22.10
2017-08-05T07:23:24.999Z,22.30
2017-08-05T07:25:52.415Z,22.30
2017-08-05T07:28:18.819Z,22.40
2017-08-05T07:30:45.186Z,22.40
2017-08-05T07:33:11.591Z,22.50
2017-08-05T07:35:38.753Z,22.70
2017-08-05T07:38:05.155Z,22.60
2017-08-05T07:40:31.528Z,22.80
2017-08-05T07:42:57.924Z,22.80
2017-08-05T07:45:24.393Z,22.70
2017-08-05T07:47:50.779Z,22.70
2017-08-05T07:50:17.231Z,22.70
2017-08-05T07:52:43.667Z,22.70
2017-08-05T07:55:10.061Z,22.70
2017-08-05T07:57:37.195Z,22.90
2017-08-05T08:00:03.606Z,22.90
2017-08-05T08:02:30.023Z,23.10
2017-08-05T08:04:57.227Z,23.60
2017-08-05T08:07:23.638Z,23.60
2017-08-05T08:09:51.052Z,23.80
2017-08-05T08:12:17.495Z,23.90
2017-08-05T08:14:43.870Z,24.10
2017-08-05T08:17:10.275Z,24.20
2017-08-05T08:19:37.395Z,24.20
2017-08-05T08:22:04.820Z,24.20
2017-08-05T08:24:31.241Z,24.20
2017-08-05T08:26:58.377Z,24.30
2017-08-05T08:29:24.761Z,24.30
2017-08-05T08:31:51.160Z,24.40
2017-08-05T08:34:17.547Z,24.50
2017-08-05T08:36:43.959Z,24.50
2017-08-05T08:39:10.387Z,24.60
2017-08-05T08:41:37.559Z,24.90
2017-08-05T08:44:04.653Z,25.40
2017-08-05T08:46:31.040Z,25.40
2017-08-05T08:48:57.440Z,26.10
2017-08-05T08:51:23.835Z,26.60
2017-08-05T08:53:50.252Z,26.60
2017-08-05T08:56:16.635Z,26.80
2017-08-05T08:58:43.087Z,26.70
2017-08-05T09:01:09.481Z,27.20
2017-08-05T09:03:35.899Z,28.30
2017-08-05T09:06:02.309Z,29.30
2017-08-05T09:08:29.711Z,29.90
2017-08-05T09:10:56.168Z,30.00
2017-08-05T09:13:22.555Z,29.70
2017-08-05T09:15:49.036Z,29.50
2017-08-05T09:18:15.460Z,29.40
2017-08-05T09:20:41.836Z,29.00
2017-08-05T09:23:08.227Z,28.50
2017-08-05T09:25:34.650Z,28.00
2017-08-05T09:28:01.790Z,26.70
2017-08-05T09:30:28.205Z,26.70
2017-08-05T09:32:54.619Z,26.40
2017-08-05T09:35:21.012Z,26.20
2017-08-05T09:37:47.444Z,26.10
2017-08-05T09:40:14.595Z,26.00
2017-08-05T09:42:41.044Z,26.00
2017-08-05T09:45:07.495Z,25.90
2017-08-05T09:47:33.933Z,25.80
2017-08-05T09:50:00.387Z,25.80
2017-08-05T09:52:26.783Z,25.70
2017-08-05T09:54:53.187Z,25.40
2017-08-05T09:57:19.561Z,25.20
2017-08-05T09:59:45.951Z,25.00
2017-08-05T10:02:12.383Z,25.00
2017-08-05T10:04:38.788Z,25.00
2017-08-05T10:07:05.191Z,25.00
2017-08-05T10:09:31.644Z,25.00
2017-08-05T10:11:58.070Z,25.00
2017-08-05T10:14:24.663Z,25.10
2017-08-05T10:16:51.140Z,25.30
2017-08-05T10:19:17.535Z,25.60
2017-08-05T10:21:43.927Z,25.70
2017-08-05T10:24:10.351Z,25.90
2017-08-05T10:26:36.745Z,25.90
2017-08-05T10:29:03.164Z,25.90
2017-08-05T10:31:29.547Z,25.90
2017-08-05T10:33:56.694Z,25.70
2017-08-05T10:36:23.420Z,25.70
2017-08-05T10:38:49.820Z,25.80
2017-08-05T10:41:16.279Z,26.00
2017-08-05T10:43:42.718Z,26.20
2017-08-05T10:46:10.111Z,26.30
2017-08-05T10:48:36.487Z,26.50
2017-08-05T10:51:02.893Z,26.70
2017-08-05T10:53:29.308Z,26.80
2017-08-05T10:55:55.792Z,26.80
2017-08-05T10:58:22.287Z,26.70
2017-08-05T11:00:48.836Z,26.40
2017-08-05T11:03:15.307Z,26.30
2017-08-05T11:05:41.819Z,26.10
2017-08-05T11:08:09.911Z,25.80
2017-08-05T11:10:36.348Z,25.80
2017-08-05T11:13:02.759Z,25.70
2017-08-05T11:15:29.176Z,25.50
2017-08-05T11:17:55.577Z,25.40
2017-08-05T11:20:21.956Z,25.40
2017-08-05T11:22:48.399Z,25.60
2017-08-05T11:25:15.571Z,25.90
2017-08-05T11:27:41.945Z,25.90
2017-08-05T11:30:09.145Z,25.90
2017-08-05T11:32:35.600Z,25.90
2017-08-05T11:35:02.011Z,25.80
2017-08-05T11:37:29.457Z,25.70
2017-08-05T11:39:56.583Z,25.80
2017-08-05T11:42:23.000Z,25.80
2017-08-05T11:44:49.412Z,26.00
2017-08-05T11:47:16.663Z,26.50
2017-08-05T11:49:43.079Z,26.40
2017-08-05T11:52:10.269Z,26.80
2017-08-05T11:54:36.663Z,26.70
2017-08-05T11:57:03.029Z,27.00
2017-08-05T11:59:29.389Z,27.30
2017-08-05T12:01:55.831Z,27.60
2017-08-05T12:04:22.339Z,27.90
2017-08-05T12:06:48.847Z,28.00
2017-08-05T12:09:15.264Z,28.10
2017-08-05T12:11:41.673Z,28.10
2017-08-05T12:14:08.107Z,28.00
2017-08-05T12:16:35.567Z,28.00
2017-08-05T12:19:01.978Z,28.20
2017-08-05T12:21:28.365Z,28.20
2017-08-05T12:23:54.811Z,28.30
2017-08-05T12:26:21.260Z,28.30
2017-08-05T12:28:47.691Z,28.20
2017-08-05T12:31:14.857Z,27.40
2017-08-05T12:33:41.227Z,27.40
2017-08-05T12:36:08.640Z,26.80
2017-08-05T12:38:35.059Z,26.20
2017-08-05T12:41:02.252Z,25.40
2017-08-05T12:43:28.635Z,25.40
2017-08-05T12:45:55.030Z,25.20
2017-08-05T12:48:21.443Z,25.10
2017-08-05T12:50:48.666Z,24.90
2017-08-05T12:53:15.088Z,24.90
2017-08-05T12:55:41.502Z,25.00
2017-08-05T12:58:07.903Z,25.10
2017-08-05T13:00:34.286Z,25.30
2017-08-05T13:03:00.756Z,25.40
2017-08-05T13:05:27.232Z,25.50
2017-08-05T13:07:53.648Z,25.50
2017-08-05T13:10:20.080Z,25.40
2017-08-05T13:12:46.460Z,25.40
2017-08-05T13:15:13.662Z,25.50
2017-08-05T13:17:40.167Z,25.40
2017-08-05T13:20:06.600Z,25.50
2017-08-05T13:22:33.009Z,25.40
2017-08-05T13:24:59.419Z,25.40
2017-08-05T13:27:25.871Z,25.50
2017-08-05T13:29:52.303Z,25.60
2017-08-05T13:32:18.687Z,25.80
2017-08-05T13:34:45.102Z,26.10
2017-08-05T13:37:11.560Z,26.30
2017-08-05T13:39:37.955Z,26.20
2017-08-05T13:42:04.361Z,26.20
2017-08-05T13:44:30.744Z,26.20
2017-08-05T13:46:57.144Z,26.10
2017-08-05T13:49:23.519Z,26.10
2017-08-05T13:51:49.915Z,26.00
2017-08-05T13:54:16.364Z,26.30
2017-08-05T13:56:43.519Z,27.00
2017-08-05T13:59:09.933Z,27.00
2017-08-05T14:01:36.343Z,28.10
2017-08-05T14:04:03.478Z,29.30
2017-08-05T14:06:29.932Z,29.30
2017-08-05T14:08:56.387Z,29.30
2017-08-05T14:11:23.889Z,28.90
2017-08-05T14:13:50.274Z,29.20
2017-08-05T14:16:16.690Z,28.90
2017-08-05T14:18:43.843Z,28.20
2017-08-05T14:21:10.239Z,28.10
2017-08-05T14:23:36.675Z,27.70
2017-08-05T14:26:03.107Z,27.40
2017-08-05T14:28:29.435Z,27.00
2017-08-05T14:30:55.907Z,26.80
2017-08-05T14:33:22.320Z,26.60
2017-08-05T14:35:49.500Z,26.40
2017-08-05T14:38:15.903Z,26.40
2017-08-05T14:40:42.341Z,26.20
2017-08-05T14:43:08.757Z,26.10
2017-08-05T14:45:35.143Z,26.20
2017-08-05T14:48:02.528Z,26.30
2017-08-05T14:50:28.911Z,26.30
2017-08-05T14:52:56.380Z,26.40
2017-08-05T14:55:22.774Z,26.60
2017-08-05T14:57:49.219Z,26.90
2017-08-05T15:00:15.637Z,27.30
2017-08-05T15:02:42.087Z,27.40
2017-08-05T15:05:08.540Z,26.90
2017-08-05T15:07:35.013Z,26.50
2017-08-05T15:10:01.496Z,26.20
2017-08-05T15:12:27.895Z,25.90
2017-08-05T15:14:54.329Z,25.50
2017-08-05T15:17:20.743Z,25.40
2017-08-05T15:19:47.182Z,25.40
2017-08-05T15:22:13.616Z,25.40
2017-08-05T15:24:40.760Z,25.60
2017-08-05T15:27:07.175Z,25.60
2017-08-05T15:29:33.599Z,25.60
2017-08-05T15:32:00.743Z,25.40
2017-08-05T15:34:27.255Z,25.40
2017-08-05T15:36:54.531Z,25.40
2017-08-05T15:39:20.930Z,25.40
2017-08-05T15:41:47.350Z,25.40
2017-08-05T15:44:13.803Z,25.40
2017-08-05T15:46:40.182Z,25.60
2017-08-05T15:49:06.607Z,25.80
2017-08-05T15:51:33.047Z,25.90
2017-08-05T15:53:59.460Z,25.90
2017-08-05T15:56:25.867Z,25.80
2017-08-05T15:58:52.311Z,25.80
2017-08-05T16:01:18.735Z,25.90
2017-08-05T16:03:45.937Z,25.80
2017-08-05T16:06:12.363Z,25.70
2017-08-05T16:08:38.755Z,25.80
2017-08-05T16:11:05.278Z,25.80
2017-08-05T16:13:32.752Z,25.80
2017-08-05T16:15:59.136Z,25.70
2017-08-05T16:18:25.568Z,25.70
2017-08-05T16:20:51.943Z,25.50
2017-08-05T16:23:19.076Z,25.40
2017-08-05T16:25:45.542Z,25.40
2017-08-05T16:28:11.963Z,25.50
2017-08-05T16:30:38.492Z,25.60
2017-08-05T16:33:05.807Z,25.50
2017-08-05T16:35:32.195Z,25.40
2017-08-05T16:37:58.559Z,25.20
2017-08-05T16:40:24.988Z,25.00
2017-08-05T16:42:51.386Z,24.80
2017-08-05T16:45:17.750Z,24.70
2017-08-05T16:47:44.162Z,24.70
2017-08-05T16:50:11.333Z,24.40
2017-08-05T16:52:37.740Z,24.40
2017-08-05T16:55:04.208Z,24.30
2017-08-05T16:57:31.365Z,24.20
2017-08-05T16:59:58.471Z,24.10
2017-08-05T17:02:24.923Z,24.10
2017-08-05T17:04:52.019Z,24.00
2017-08-05T17:07:18.407Z,24.00
2017-08-05T17:09:44.823Z,24.00
2017-08-05T17:12:11.235Z,23.90
2017-08-05T17:14:37.678Z,23.90
2017-08-05T17:17:04.054Z,23.70
2017-08-05T17:19:30.403Z,23.60
2017-08-05T17:21:56.815Z,23.50
2017-08-05T17:24:23.255Z,23.40
2017-08-05T17:26:49.662Z,23.40
2017-08-05T17:29:16.122Z,23.30
2017-08-05T17:31:43.255Z,23.20
2017-08-05T17:34:09.647Z,23.20
2017-08-05T17:36:36.802Z,23.10
2017-08-05T17:39:03.988Z,23.10
2017-08-05T17:41:30.373Z,23.10
2017-08-05T17:43:56.827Z,23.10
2017-08-05T17:46:23.507Z,23.10
2017-08-05T17:48:49.947Z,23.10
2017-08-05T17:51:17.338Z,23.20
2017-08-05T17:53:43.770Z,23.20
2017-08-05T17:56:10.175Z,23.20
2017-08-05T17:58:36.620Z,23.20
2017-08-05T18:01:02.995Z,23.10
2017-08-05T18:03:29.395Z,23.00
2017-08-05T18:05:55.782Z,22.90
2017-08-05T18:08:22.148Z,22.80
2017-08-05T18:10:48.535Z,22.70
2017-08-05T18:13:14.976Z,22.70
2017-08-05T18:15:41.367Z,22.70
2017-08-05T18:18:07.783Z,22.60
2017-08-05T18:20:34.176Z,22.50
2017-08-05T18:23:00.551Z,22.50
2017-08-05T18:25:27.695Z,22.30
2017-08-05T18:27:54.184Z,22.30
2017-08-05T18:30:20.579Z,22.20
2017-08-05T18:32:47.000Z,22.20
2017-08-05T18:35:13.400Z,22.10
2017-08-05T18:37:39.819Z,22.10
2017-08-05T18:40:06.219Z,22.00
2017-08-05T18:42:32.711Z,21.90
2017-08-05T18:44:59.923Z,21.80
2017-08-05T18:47:26.310Z,21.80
2017-08-05T18:49:52.704Z,21.80
2017-08-05T18:52:20.111Z,21.70
2017-08-05T18:54:46.591Z,21.60
2017-08-05T18:57:13.052Z,21.60
2017-08-05T18:59:39.471Z,21.50
2017-08-05T19:02:06.631Z,21.30
2017-08-05T19:04:33.059Z,21.30
2017-08-05T19:06:59.522Z,21.30
2017-08-05T19:09:25.941Z,21.20
2017-08-05T19:11:53.089Z,21.00
2017-08-05T19:14:20.217Z,21.00
2017-08-05T19:16:46.627Z,21.00
2017-08-05T19:19:13.055Z,20.80
2017-08-05T19:21:39.513Z,20.80
2017-08-05T19:24:05.904Z,20.80
2017-08-05T19:26:32.345Z,20.70
2017-08-05T19:28:58.831Z,20.70
2017-08-05T19:31:25.475Z,20.60
2017-08-05T19:33:52.115Z,20.50
2017-08-05T19:36:18.527Z,20.60
2017-08-05T19:38:44.906Z,20.50
2017-08-05T19:41:12.179Z,20.40
2017-08-05T19:43:39.359Z,20.40
2017-08-05T19:46:05.812Z,20.40
2017-08-05T19:48:32.357Z,20.40
2017-08-05T19:50:59.710Z,20.40
2017-08-05T19:53:26.141Z,20.30
2017-08-05T19:55:53.372Z,20.40
2017-08-05T19:58:20.060Z,20.30
2017-08-05T20:00:46.802Z,20.40
2017-08-05T20:03:13.524Z,20.40
2017-08-05T20:05:40.134Z,20.40
2017-08-05T20:08:07.073Z,20.40
2017-08-05T20:10:33.720Z,20.50
2017-08-05T20:13:00.371Z,20.40
2017-08-05T20:15:27.705Z,20.50
2017-08-05T20:17:54.207Z,20.50
2017-08-05T20:20:20.710Z,20.50
2017-08-05T20:22:47.414Z,20.50
2017-08-05T20:25:14.459Z,20.50
2017-08-05T20:27:41.704Z,20.50
2017-08-05T20:30:08.881Z,20.50
2017-08-05T20:32:35.341Z,20.50
2017-08-05T20:35:02.451Z,20.50
2017-08-05T20:37:28.990Z,20.50
2017-08-05T20:39:55.560Z,20.40
2017-08-05T20:42:21.967Z,20.40
2017-08-05T20:44:48.433Z,20.40
2017-08-05T20:47:14.862Z,20.30
2017-08-05T20:49:41.283Z,20.30
2017-08-05T20:52:08.434Z,20.20
2017-08-05T20:54:34.899Z,20.20
2017-08-05T20:57:02.087Z,20.20
2017-08-05T20:59:28.555Z,20.10
2017-08-05T21:01:55.868Z,20.00
2017-08-05T21:04:22.336Z,20.00
2017-08-05T21:06:49.549Z,20.00
2017-08-05T21:09:16.118Z,20.00
2017-08-05T21:11:42.563Z,20.00
2017-08-05T21:14:09.085Z,19.90
2017-08-05T21:16:35.517Z,19.80
2017-08-05T21:19:01.898Z,19.70
2017-08-05T21:21:28.738Z,19.60
2017-08-05T21:23:55.142Z,19.50
2017-08-05T21:26:21.516Z,19.50
2017-08-05T21:28:47.975Z,19.40
2017-08-05T21:31:14.379Z,19.40
2017-08-05T21:33:40.813Z,19.30
2017-08-05T21:36:07.228Z,19.30
2017-08-05T21:38:33.694Z,19.20
2017-08-05T21:41:00.075Z,19.10
2017-08-05T21:43:26.517Z,19.10
2017-08-05T21:45:53.691Z,19.00
2017-08-05T21:48:20.828Z,19.00
2017-08-05T21:50:47.238Z,18.90
2017-08-05T21:53:13.652Z,18.90
2017-08-05T21:55:40.799Z,18.80
2017-08-05T21:58:07.931Z,18.70
2017-08-05T22:00:34.347Z,18.70
2017-08-05T22:03:01.460Z,18.70
2017-08-05T22:05:27.852Z,18.60
2017-08-05T22:07:54.243Z,18.60
2017-08-05T22:10:20.726Z,18.60
2017-08-05T22:12:47.215Z,18.50
2017-08-05T22:15:14.352Z,18.30
2017-08-05T22:17:40.795Z,18.30
2017-08-05T22:20:07.263Z,18.30
2017-08-05T22:22:33.696Z,18.30
2017-08-05T22:25:00.080Z,18.20
2017-08-05T22:27:26.580Z,18.20
2017-08-05T22:29:52.977Z,18.10
2017-08-05T22:32:19.336Z,18.00
2017-08-05T22:34:45.760Z,17.90
2017-08-05T22:37:12.166Z,17.80
2017-08-05T22:39:38.544Z,17.70
2017-08-05T22:42:04.967Z,17.70
2017-08-05T22:44:31.381Z,17.70
2017-08-05T22:46:58.787Z,17.60
2017-08-05T22:49:25.215Z,17.60
2017-08-05T22:51:51.675Z,17.60
2017-08-05T22:54:18.078Z,17.50
2017-08-05T22:56:45.227Z,17.50
2017-08-05T22:59:11.659Z,17.40
2017-08-05T23:01:38.063Z,17.40
2017-08-05T23:04:04.527Z,17.40
2017-08-05T23:06:30.879Z,17.40
2017-08-05T23:08:57.267Z,17.40
2017-08-05T23:11:23.659Z,17.30
2017-08-05T23:13:50.059Z,17.30
2017-08-05T23:16:16.425Z,17.30
2017-08-05T23:18:43.639Z,17.10
2017-08-05T23:21:12.815Z,17.10
2017-08-05T23:23:39.200Z,17.00
2017-08-05T23:26:05.635Z,17.00
2017-08-05T23:28:32.088Z,17.00
2017-08-05T23:30:58.515Z,17.00
2017-08-05T23:33:24.911Z,16.90
2017-08-05T23:35:51.335Z,16.80
2017-08-05T23:38:17.733Z,16.80
2017-08-05T23:40:44.147Z,16.70
2017-08-05T23:43:10.592Z,16.70
2017-08-05T23:45:37.732Z,16.60
2017-08-05T23:48:04.879Z,16.50
2017-08-05T23:50:31.288Z,16.50
2017-08-05T23:52:57.742Z,16.50
2017-08-05T23:55:24.179Z,16.50
2017-08-05T23:57:50.631Z,16.30
